Humidity-temperature Sensor

Selected Measurement Type: Relative Humidity

 
Relative Humidity [%]     6 entries per hour
Showing data from 5/9/2022 (00:00:00 Z) to 5/2/2022 (00:01:00 Z)
Previous Next [ Day | 3-Days | 7-Days ]
First Last
Prev [ Day | 3-Days | 7-Days ] Next
First Last

Start Time:     :
End Time:     :     
Time (in GMT) :00 :50 :40 :30 :20 :10
Previous Next [ Day | 3-Days | 7-Days ]
First Last
Prev [ Day | 3-Days | 7-Days ] Next
First Last


123 => good data
MM => data is determined as missing
-- => data not received/configured
Back to Top Back to Top
5/9/2022 00:00 to 23:10 84.84 84.51 84.72 84.41 85.29 85.13
5/8/2022 23:00 to 22:10 84.16 84.04 84.72 85.09 84.90 84.35
5/8/2022 22:00 to 21:10 84.20 84.88 85.33 85.09 85.62 85.79
5/8/2022 21:00 to 20:10 85.60 85.35 85.09 84.90 85.21 85.52
5/8/2022 20:00 to 19:10 85.97 86.46 86.75 86.38 86.85 86.94
5/8/2022 19:00 to 18:10 86.03 86.09 85.72 86.13 85.83 86.22
5/8/2022 18:00 to 17:10 86.18 86.38 86.46 86.42 86.28 85.72
5/8/2022 17:00 to 16:10 85.74 85.39 84.86 85.13 85.44 85.17
5/8/2022 16:00 to 15:10 85.97 86.38 86.85 87.41 87.84 87.90
5/8/2022 15:00 to 14:10 88.21 88.29 88.21 88.33 88.81 89.07
5/8/2022 14:00 to 13:10 89.36 88.99 88.35 88.70 89.11 89.61
5/8/2022 13:00 to 12:10 89.94 90.43 90.47 90.53 90.35 90.35
5/8/2022 12:00 to 11:10 90.35 90.74 91.27 91.13 91.11 90.80
5/8/2022 11:00 to 10:10 91.17 91.07 90.68 90.55 90.57 90.84
5/8/2022 10:00 to 9:10 91.37 91.13 90.86 90.66 90.74 90.49
5/8/2022 09:00 to 8:10 90.96 90.98 90.47 90.47 91.00 91.33
5/8/2022 08:00 to 7:10 91.25 91.25 91.58 91.50 91.54 91.66
5/8/2022 07:00 to 6:10 91.87 91.58 91.50 91.19 91.35 91.60
5/8/2022 06:00 to 5:10 91.87 92.18 93.00 95.09 96.94 97.68
5/8/2022 05:00 to 4:10 97.40 96.98 96.10 95.18 94.91 93.82
5/8/2022 04:00 to 3:10 93.35 92.98 91.83 90.45 89.96 89.50
5/8/2022 03:00 to 2:10 89.55 89.59 88.70 89.09 89.22 88.66
5/8/2022 02:00 to 1:10 88.72 89.32 90.33 90.06 90.45 91.99
5/8/2022 01:00 to 0:10 92.92 93.16 93.55 94.64 95.16 93.92
5/8/2022 00:00 to 23:10 91.72 90.33 89.63 89.50 89.71 88.87
5/7/2022 23:00 to 22:10 87.63 88.03 88.13 87.74 87.80 88.83
5/7/2022 22:00 to 21:10 89.92 92.14 94.46 94.79 95.01 95.36
5/7/2022 21:00 to 20:10 95.07 95.73 96.64 96.76 96.78 95.98
5/7/2022 20:00 to 19:10 95.26 94.72 93.64 92.30 90.61 90.37
5/7/2022 19:00 to 18:10 90.45 90.68 91.00 92.50 93.68 95.11
5/7/2022 18:00 to 17:10 96.55 97.17 97.40 97.48 97.70 97.93
5/7/2022 17:00 to 16:10 97.83 97.87 97.97 98.36 98.44 98.73
5/7/2022 16:00 to 15:10 98.90 99.06 99.24 99.33 99.61 99.49
5/7/2022 15:00 to 14:10 99.59 99.61 99.61 99.88 99.76 99.84
5/7/2022 14:00 to 13:10 99.72 99.51 99.20 98.69 98.48 97.60
5/7/2022 13:00 to 12:10 96.20 95.48 95.65 95.87 95.32 94.52
5/7/2022 12:00 to 11:10 94.05 94.83 95.32 95.18 95.40 95.77
5/7/2022 11:00 to 10:10 95.61 95.57 95.34 95.46 95.67 95.92
5/7/2022 10:00 to 9:10 95.65 95.40 95.48 95.73 95.57 96.16
5/7/2022 09:00 to 8:10 96.33 95.98 94.91 93.59 90.59 88.25
5/7/2022 08:00 to 7:10 88.46 88.42 87.68 87.59 87.74 87.20
5/7/2022 07:00 to 6:10 87.61 87.86 88.07 88.15 88.13 87.94
5/7/2022 06:00 to 5:10 87.80 87.96 87.74 87.41 86.77 87.18
5/7/2022 05:00 to 4:10 87.41 87.04 86.65 86.42 86.71 86.55
5/7/2022 04:00 to 3:10 86.90 87.20 87.39 87.41 87.72 87.92
5/7/2022 03:00 to 2:10 87.94 88.27 88.13 88.31 89.32 90.49
5/7/2022 02:00 to 1:10 89.69 89.59 89.92 89.75 90.47 91.48
5/7/2022 01:00 to 0:10 91.91 92.65 93.86 94.58 95.14 95.55
5/7/2022 00:00 to 23:10 95.61 95.94 95.59 95.20 94.79 94.40
5/6/2022 23:00 to 22:10 94.89 96.14 96.53 97.03 96.57 96.10
5/6/2022 22:00 to 21:10 95.81 95.44 94.58 93.06 93.24 93.41
5/6/2022 21:00 to 20:10 95.03 96.16 97.68 98.38 98.51 99.08
5/6/2022 20:00 to 19:10 99.55 99.88 99.86 99.92 99.53 99.39
5/6/2022 19:00 to 18:10 99.20 99.18 99.49 98.96 98.90 98.73
5/6/2022 18:00 to 17:10 98.48 98.03 97.66 97.19 96.72 96.53
5/6/2022 17:00 to 16:10 96.61 96.29 95.87 95.53 94.95 94.17
5/6/2022 16:00 to 15:10 93.45 92.71 91.95 92.07 91.89 91.93
5/6/2022 15:00 to 14:10 92.40 92.75 92.63 92.87 93.29 93.76
5/6/2022 14:00 to 13:10 94.05 94.50 94.91 95.14 94.93 94.83
5/6/2022 13:00 to 12:10 94.64 94.54 94.50 93.70 92.69 91.27
5/6/2022 12:00 to 11:10 92.20 93.35 93.24 92.40 92.07 91.95
5/6/2022 11:00 to 10:10 91.58 91.66 91.85 92.73 93.29 93.45
5/6/2022 10:00 to 9:10 93.72 93.53 93.20 93.00 92.18 91.42
5/6/2022 09:00 to 8:10 90.24 87.74 87.68 87.45 87.10 86.57
5/6/2022 08:00 to 7:10 87.08 86.83 86.24 86.11 86.53 86.71
5/6/2022 07:00 to 6:10 86.92 86.92 86.98 86.26 86.16 85.83
5/6/2022 06:00 to 5:10 85.99 86.50 86.96 86.73 86.65 86.69
5/6/2022 05:00 to 4:10 87.12 86.98 86.90 86.57 86.22 86.61
5/6/2022 04:00 to 3:10 86.30 86.38 86.42 86.05 85.97 86.05
5/6/2022 03:00 to 2:10 86.50 86.26 86.20 86.34 86.59 86.50
5/6/2022 02:00 to 1:10 85.91 86.26 86.38 86.24 86.30 86.34
5/6/2022 01:00 to 0:10 86.55 86.26 86.13 85.72 85.62 85.11
5/6/2022 00:00 to 23:10 85.54 85.05 84.53 84.31 84.10 83.69
5/5/2022 23:00 to 22:10 83.55 83.55 83.07 83.26 83.24 84.04
5/5/2022 22:00 to 21:10 84.47 84.14 84.20 84.41 84.59 84.92
5/5/2022 21:00 to 20:10 85.21 85.62 85.89 85.66 85.72 85.54
5/5/2022 20:00 to 19:10 85.29 85.39 85.17 84.98 85.13 85.21
5/5/2022 19:00 to 18:10 84.86 85.23 84.47 84.10 84.45 84.86
5/5/2022 18:00 to 17:10 85.37 85.44 85.23 85.05 84.76 84.98
5/5/2022 17:00 to 16:10 85.03 86.28 86.87 87.24 86.85 87.20
5/5/2022 16:00 to 15:10 87.49 87.43 87.55 87.74 87.37 87.47
5/5/2022 15:00 to 14:10 87.59 87.57 87.20 87.47 87.24 87.92
5/5/2022 14:00 to 13:10 87.68 87.45 87.72 88.35 88.95 89.50
5/5/2022 13:00 to 12:10 89.40 89.24 88.33 87.88 87.31 87.20
5/5/2022 12:00 to 11:10 87.04 88.05 88.72 89.05 89.03 89.03
5/5/2022 11:00 to 10:10 88.74 87.94 87.82 87.57 87.76 87.84
5/5/2022 10:00 to 9:10 87.10 86.96 86.94 87.98 88.11 88.52
5/5/2022 09:00 to 8:10 88.46 89.05 89.59 89.11 89.65 88.64
5/5/2022 08:00 to 7:10 87.55 86.61 86.42 86.96 87.39 87.47
5/5/2022 07:00 to 6:10 87.66 87.22 87.20 87.70 88.54 88.13
5/5/2022 06:00 to 5:10 88.00 88.91 89.75 90.33 91.50 93.96
5/5/2022 05:00 to 4:10 95.81 96.31 97.05 97.17 96.88 96.00
5/5/2022 04:00 to 3:10 94.97 94.33 93.55 93.64 93.55 93.22
5/5/2022 03:00 to 2:10 92.36 91.33 90.49 89.77 88.62 88.13
5/5/2022 02:00 to 1:10 88.07 87.59 86.83 86.63 86.81 86.73
5/5/2022 01:00 to 0:10 86.73 87.04 88.05 89.05 89.83 91.03
5/5/2022 00:00 to 23:10 92.28 92.94 93.43 92.98 92.34 91.72
5/4/2022 23:00 to 22:10 91.17 91.37 91.58 91.66 91.99 92.22
5/4/2022 22:00 to 21:10 92.07 92.01 91.46 91.81 92.36 93.08
5/4/2022 21:00 to 20:10 93.41 93.47 93.53 93.66 93.24 92.77
5/4/2022 20:00 to 19:10 91.29 90.22 90.22 91.33 91.48 91.23
5/4/2022 19:00 to 18:10 92.01 93.22 94.15 94.95 95.53 95.94
5/4/2022 18:00 to 17:10 96.14 96.72 97.03 97.44 97.95 98.20
5/4/2022 17:00 to 16:10 98.44 98.65 98.96 98.75 98.88 98.59
5/4/2022 16:00 to 15:10 98.85 99.12 99.22 99.04 98.81 98.46
5/4/2022 15:00 to 14:10 97.85 97.19 96.72 96.04 95.30 94.70
5/4/2022 14:00 to 13:10 93.72 92.79 92.92 93.80 93.39 92.81
5/4/2022 13:00 to 12:10 94.25 94.66 94.72 95.44 96.06 96.31
5/4/2022 12:00 to 11:10 96.98 97.21 97.64 98.11 98.28 98.48
5/4/2022 11:00 to 10:10 97.58 97.21 96.24 94.15 89.22 89.73
5/4/2022 10:00 to 9:10 90.08 90.29 90.37 90.14 89.90 90.02
5/4/2022 09:00 to 8:10 89.63 89.50 89.61 89.28 89.18 89.09
5/4/2022 08:00 to 7:10 88.68 88.62 88.58 88.42 88.64 88.70
5/4/2022 07:00 to 6:10 89.09 88.81 88.97 88.68 88.62 88.58
5/4/2022 06:00 to 5:10 88.52 88.52 88.09 88.07 87.76 87.92
5/4/2022 05:00 to 4:10 87.94 87.70 87.68 88.25 88.91 88.68
5/4/2022 04:00 to 3:10 88.93 88.72 89.07 88.83 89.22 88.56
5/4/2022 03:00 to 2:10 88.44 88.56 88.52 88.68 88.99 89.09
5/4/2022 02:00 to 1:10 89.03 89.30 89.46 89.85 89.69 89.67
5/4/2022 01:00 to 0:10 89.90 90.10 90.37 90.20 89.77 90.20
5/4/2022 00:00 to 23:10 90.24 90.27 89.63 89.65 89.87 90.06
5/3/2022 23:00 to 22:10 90.29 90.49 90.49 90.80 90.86 90.86
5/3/2022 22:00 to 21:10 90.94 91.29 91.21 91.23 91.00 91.15
5/3/2022 21:00 to 20:10 91.09 91.21 90.49 90.66 90.41 90.24
5/3/2022 20:00 to 19:10 90.14 90.06 90.39 90.39 90.39 90.14
5/3/2022 19:00 to 18:10 90.06 89.67 89.24 89.05 89.13 89.07
5/3/2022 18:00 to 17:10 89.18 89.57 89.42 89.71 89.59 89.83
5/3/2022 17:00 to 16:10 90.29 90.35 90.29 90.08 90.00 90.04
5/3/2022 16:00 to 15:10 90.04 90.08 89.48 89.46 89.65 90.22
5/3/2022 15:00 to 14:10 90.76 90.51 89.79 89.24 89.28 89.75
5/3/2022 14:00 to 13:10 89.81 89.77 89.92 90.02 90.24 90.41
5/3/2022 13:00 to 12:10 90.49 90.68 90.59 90.84 90.86 90.74
5/3/2022 12:00 to 11:10 90.47 90.33 90.27 89.98 90.12 90.18
5/3/2022 11:00 to 10:10 90.45 90.27 90.06 90.04 90.16 89.85
5/3/2022 10:00 to 9:10 89.85 89.71 89.90 89.77 89.79 89.83
5/3/2022 09:00 to 8:10 89.28 89.03 89.09 89.16 88.97 89.20
5/3/2022 08:00 to 7:10 89.30 89.05 88.97 88.93 88.91 88.81
5/3/2022 07:00 to 6:10 88.74 88.64 88.27 88.09 88.31 88.31
5/3/2022 06:00 to 5:10 88.19 88.03 87.37 87.22 87.18 87.06
5/3/2022 05:00 to 4:10 87.16 87.04 87.33 87.47 87.26 87.10
5/3/2022 04:00 to 3:10 86.85 86.65 86.42 86.20 86.30 86.42
5/3/2022 03:00 to 2:10 86.26 85.99 85.99 86.22 86.28 86.09
5/3/2022 02:00 to 1:10 86.20 86.05 86.01 85.76 85.74 85.95
5/3/2022 01:00 to 0:10 86.09 86.05 86.13 86.22 86.13 86.24
5/3/2022 00:00 to 23:10 86.32 86.20 86.26 86.07 86.44 86.67
5/2/2022 23:00 to 22:10 86.55 86.55 86.26 85.95 85.58 85.25
5/2/2022 22:00 to 21:10 85.35 85.95 86.03 86.26 85.97 85.29
5/2/2022 21:00 to 20:10 85.03 84.76 84.88 84.82 84.94 84.94
5/2/2022 20:00 to 19:10 85.46 85.85 86.16 86.22 86.46 86.90
5/2/2022 19:00 to 18:10 86.32 86.13 86.42 86.28 86.16 86.11
5/2/2022 18:00 to 17:10 86.01 85.79 85.09 84.31 84.43 84.70
5/2/2022 17:00 to 16:10 84.63 85.00 85.19 85.91 86.42 86.44
5/2/2022 16:00 to 15:10 86.57 86.85 86.42 86.40 86.26 86.20
5/2/2022 15:00 to 14:10 86.55 86.57 86.65 86.75 86.90 86.61
5/2/2022 14:00 to 13:10 86.32 86.44 86.65 86.98 86.90 86.85
5/2/2022 13:00 to 12:10 86.90 86.94 86.92 86.38 86.07 86.28
5/2/2022 12:00 to 11:10 86.96 87.51 87.86 87.86 87.59 87.02
5/2/2022 11:00 to 10:10 86.85 86.67 87.49 87.43 87.12 86.65
5/2/2022 10:00 to 9:10 85.89 85.64 85.66 86.18 86.48 86.75
5/2/2022 09:00 to 8:10 86.48 86.48 86.53 86.36 86.40 85.81
5/2/2022 08:00 to 7:10 85.50 85.87 86.30 86.03 85.83 86.13
5/2/2022 07:00 to 6:10 86.03 86.07 86.05 86.18 86.22 86.24
5/2/2022 06:00 to 5:10 86.81 87.37 88.00 88.07 87.96 88.33
5/2/2022 05:00 to 4:10 87.92 87.82 88.23 88.25 88.79 89.30
5/2/2022 04:00 to 3:10 89.73 89.94 89.81 89.09 88.85 87.84
5/2/2022 03:00 to 2:10 87.02 86.61 86.63 86.71 87.20 88.19
5/2/2022 02:00 to 1:10 88.93 88.19 87.02 85.19 84.51 84.63
5/2/2022 01:00 to 0:10 84.63 84.76 84.57 84.68 85.54 85.44